createdAt,value
2019-04-16T00:02:01.170Z,61.40
2019-04-16T00:04:31.444Z,61.70
2019-04-16T00:07:17.949Z,61.20
2019-04-16T00:09:54.271Z,61.50
2019-04-16T00:12:40.749Z,61.90
2019-04-16T00:15:09.443Z,61.80
2019-04-16T00:17:38.051Z,61.80
2019-04-16T00:20:07.562Z,62.70
2019-04-16T00:22:37.838Z,63.10
2019-04-16T00:25:06.906Z,63.60
2019-04-16T00:27:35.463Z,63.80
2019-04-16T00:30:06.044Z,64.20
2019-04-16T00:32:34.612Z,64.30
2019-04-16T00:35:03.287Z,64.70
2019-04-16T00:37:31.856Z,65.20
2019-04-16T00:40:00.453Z,65.40
2019-04-16T00:42:29.007Z,65.90
2019-04-16T00:44:57.594Z,66.30
2019-04-16T00:47:26.163Z,66.80
2019-04-16T00:49:57.732Z,66.80
2019-04-16T00:52:24.956Z,67.20
2019-04-16T00:54:53.525Z,67.70
2019-04-16T00:57:22.265Z,68.20
2019-04-16T00:59:55.093Z,68.90
2019-04-16T01:02:21.079Z,69.30
2019-04-16T01:04:49.643Z,69.70
2019-04-16T01:07:18.251Z,70.50
2019-04-16T01:09:46.812Z,71.30
2019-04-16T01:12:15.400Z,71.90
2019-04-16T01:14:43.953Z,72.80
2019-04-16T01:17:12.546Z,73.50
2019-04-16T01:19:41.962Z,73.90
2019-04-16T01:22:15.315Z,74.50
2019-04-16T01:24:41.072Z,75.00
2019-04-16T01:27:33.346Z,75.30
2019-04-16T01:30:04.901Z,75.90
2019-04-16T01:32:42.488Z,76.50
2019-04-16T01:35:21.091Z,76.80
2019-04-16T01:38:08.047Z,77.70
2019-04-16T01:40:51.049Z,78.60
2019-04-16T01:43:19.642Z,78.70
2019-04-16T01:45:48.190Z,79.40
2019-04-16T01:48:16.790Z,79.10
2019-04-16T01:50:45.361Z,80.30
2019-04-16T01:53:13.882Z,80.60
2019-04-16T01:55:42.692Z,81.20
2019-04-16T01:58:11.316Z,82.10
2019-04-16T02:00:40.096Z,82.00
2019-04-16T02:03:08.745Z,81.70
2019-04-16T02:05:37.365Z,81.60
2019-04-16T02:08:06.037Z,82.40
2019-04-16T02:10:35.482Z,82.70
2019-04-16T02:13:05.336Z,84.10
2019-04-16T02:15:33.915Z,84.40
2019-04-16T02:18:02.502Z,85.30
2019-04-16T02:20:31.061Z,86.60
2019-04-16T02:22:59.573Z,87.60
2019-04-16T02:25:28.126Z,88.80
2019-04-16T02:27:57.067Z,89.40
2019-04-16T02:30:26.298Z,90.00
2019-04-16T02:32:54.886Z,90.60
2019-04-16T02:35:23.512Z,90.80
2019-04-16T02:37:52.097Z,91.00
2019-04-16T02:40:20.643Z,91.30
2019-04-16T02:42:49.231Z,91.70
2019-04-16T02:45:22.952Z,92.40
2019-04-16T02:47:48.013Z,92.50
2019-04-16T02:50:20.947Z,92.40
2019-04-16T02:52:54.178Z,92.60
2019-04-16T02:55:43.967Z,92.80
2019-04-16T02:58:12.517Z,92.70
2019-04-16T03:00:59.082Z,92.90
2019-04-16T03:03:29.309Z,93.50
2019-04-16T03:06:00.674Z,93.70
2019-04-16T03:08:28.375Z,93.90
2019-04-16T03:10:57.037Z,93.90
2019-04-16T03:13:26.738Z,94.10
2019-04-16T03:16:12.023Z,94.20
2019-04-16T03:18:46.882Z,94.30
2019-04-16T03:21:12.467Z,94.70
2019-04-16T03:23:41.022Z,94.70
2019-04-16T03:26:09.607Z,95.00
2019-04-16T03:28:38.245Z,94.90
2019-04-16T03:31:09.097Z,95.20
2019-04-16T03:33:37.223Z,95.30
2019-04-16T03:36:05.782Z,95.60
2019-04-16T03:38:37.367Z,95.60
2019-04-16T03:41:04.716Z,95.70
2019-04-16T03:43:33.321Z,95.70
2019-04-16T03:46:01.862Z,95.80
2019-04-16T03:48:30.470Z,95.90
2019-04-16T03:51:00.563Z,96.30
2019-04-16T03:53:29.258Z,96.50
2019-04-16T03:55:58.239Z,96.90
2019-04-16T03:58:27.773Z,97.00
2019-04-16T04:00:56.307Z,97.00
2019-04-16T04:03:26.081Z,96.90
2019-04-16T04:05:55.670Z,97.00
2019-04-16T04:08:24.764Z,97.20
2019-04-16T04:10:53.690Z,97.40
2019-04-16T04:13:22.594Z,97.60
2019-04-16T04:15:54.746Z,97.80
2019-04-16T04:18:21.910Z,97.70
2019-04-16T04:20:50.936Z,97.40
2019-04-16T04:23:19.738Z,97.50
2019-04-16T04:25:48.334Z,97.40
2019-04-16T04:28:19.967Z,98.00
2019-04-16T04:30:48.821Z,98.40
2019-04-16T04:33:40.638Z,98.20
2019-04-16T04:36:08.630Z,98.00
2019-04-16T04:38:38.458Z,97.90
2019-04-16T04:41:08.053Z,98.00
2019-04-16T04:43:36.787Z,98.20
2019-04-16T04:46:05.840Z,98.50
2019-04-16T04:48:34.393Z,98.50
2019-04-16T04:51:06.850Z,98.60
2019-04-16T04:53:33.277Z,98.90
2019-04-16T04:56:01.877Z,99.00
2019-04-16T04:58:33.721Z,98.80
2019-04-16T05:01:00.727Z,98.70
2019-04-16T05:03:30.920Z,99.20
2019-04-16T05:06:04.116Z,99.60
2019-04-16T05:08:32.674Z,99.60
2019-04-16T05:11:03.025Z,99.80
2019-04-16T05:13:31.787Z,99.50
2019-04-16T05:16:01.892Z,99.60
2019-04-16T05:18:30.595Z,99.50
2019-04-16T05:20:59.149Z,99.40
2019-04-16T05:23:27.676Z,99.70
2019-04-16T05:25:56.233Z,99.60
2019-04-16T05:28:24.822Z,99.50
2019-04-16T05:30:53.373Z,99.80
2019-04-16T05:33:21.973Z,99.40
2019-04-16T05:35:50.506Z,99.30
2019-04-16T05:38:20.478Z,99.20
2019-04-16T05:40:49.341Z,99.20
2019-04-16T05:43:17.932Z,98.90
2019-04-16T05:45:46.505Z,98.70
2019-04-16T05:48:15.100Z,98.50
2019-04-16T05:50:43.650Z,98.50
2019-04-16T05:53:13.554Z,98.30
2019-04-16T05:55:50.546Z,98.40
2019-04-16T05:58:19.405Z,98.40
2019-04-16T06:00:49.676Z,98.90
2019-04-16T06:03:21.811Z,98.20
2019-04-16T06:05:48.476Z,99.00
2019-04-16T06:08:17.105Z,98.70
2019-04-16T06:10:49.940Z,98.40
2019-04-16T06:13:17.569Z,98.00
2019-04-16T06:16:02.830Z,98.20
2019-04-16T06:18:39.038Z,98.20
2019-04-16T06:21:26.676Z,98.00
2019-04-16T06:24:03.088Z,98.10
2019-04-16T06:26:34.040Z,97.60
2019-04-16T06:29:19.601Z,97.90
2019-04-16T06:31:52.938Z,97.80
2019-04-16T06:34:39.402Z,97.80
2019-04-16T06:37:21.788Z,98.50
2019-04-16T07:00:19.982Z,95.60
2019-04-16T07:03:02.505Z,94.00
2019-04-16T07:05:32.126Z,94.50
2019-04-16T07:08:03.600Z,94.50
2019-04-16T07:10:43.948Z,93.80
2019-04-16T07:13:10.281Z,94.00
2019-04-16T07:15:37.843Z,93.30
2019-04-16T07:18:08.337Z,93.40
2019-04-16T07:20:38.709Z,92.70
2019-04-16T07:23:09.050Z,92.80
2019-04-16T07:25:41.720Z,91.80
2019-04-16T07:28:26.834Z,91.40
2019-04-16T07:31:25.906Z,91.90
2019-04-16T07:33:56.509Z,90.30
2019-04-16T07:36:27.306Z,90.40
2019-04-16T07:39:28.730Z,88.50
2019-04-16T07:42:10.254Z,86.70
2019-04-16T07:44:41.834Z,84.80
2019-04-16T07:47:28.610Z,83.90
2019-04-16T07:50:07.939Z,82.20
2019-04-16T07:52:39.058Z,78.80
2019-04-16T07:55:16.352Z,76.80
2019-04-16T07:57:44.909Z,75.20
2019-04-16T08:00:14.546Z,76.90
2019-04-16T08:02:43.244Z,72.10
2019-04-16T08:05:12.038Z,74.40
2019-04-16T08:07:40.550Z,73.20
2019-04-16T08:10:09.483Z,70.20
2019-04-16T08:12:41.994Z,67.80
2019-04-16T08:15:14.192Z,65.90
2019-04-16T08:17:40.434Z,63.10
2019-04-16T08:20:09.241Z,64.00
2019-04-16T08:22:40.061Z,66.30
2019-04-16T08:25:08.904Z,63.50
2019-04-16T08:27:37.553Z,63.80
2019-04-16T08:30:09.431Z,59.60
2019-04-16T08:32:37.998Z,59.50
2019-04-16T08:35:07.171Z,60.00
2019-04-16T08:37:48.368Z,56.70
2019-04-16T08:40:08.830Z,58.60
2019-04-16T08:42:44.160Z,57.70
2019-04-16T08:45:08.978Z,59.50
2019-04-16T08:47:37.770Z,56.70
2019-04-16T08:50:06.774Z,58.60
2019-04-16T08:52:35.366Z,56.00
2019-04-16T08:55:04.270Z,57.20
2019-04-16T08:57:32.915Z,56.50
2019-04-16T09:00:01.654Z,55.60
2019-04-16T09:02:30.266Z,52.90
2019-04-16T09:04:58.862Z,53.20
2019-04-16T09:07:39.818Z,51.20
2019-04-16T09:10:24.196Z,52.70
2019-04-16T09:13:03.018Z,50.20
2019-04-16T09:15:38.214Z,49.90
2019-04-16T09:18:26.502Z,50.70
2019-04-16T09:20:55.144Z,49.00
2019-04-16T09:23:26.660Z,47.50
2019-04-16T09:26:15.249Z,46.80
2019-04-16T09:28:46.619Z,46.60
2019-04-16T09:31:33.109Z,46.70
2019-04-16T09:34:09.068Z,48.90
2019-04-16T09:36:55.708Z,45.00
2019-04-16T09:39:29.106Z,45.20
2019-04-16T09:41:57.770Z,44.00
2019-04-16T09:44:29.533Z,46.50
2019-04-16T09:46:59.470Z,44.10
2019-04-16T09:49:26.863Z,41.50
2019-04-16T09:51:55.420Z,43.10
2019-04-16T09:54:24.209Z,42.10
2019-04-16T09:56:52.838Z,43.00
2019-04-16T09:59:23.150Z,41.90
2019-04-16T10:01:53.417Z,43.00
2019-04-16T10:04:22.070Z,40.20
2019-04-16T10:06:50.719Z,39.90
2019-04-16T10:09:21.670Z,39.00
2019-04-16T10:11:49.584Z,39.90
2019-04-16T10:14:18.189Z,38.50
2019-04-16T10:16:46.728Z,36.90
2019-04-16T10:19:15.318Z,39.20
2019-04-16T10:21:43.894Z,38.10
2019-04-16T10:24:25.709Z,37.50
2019-04-16T10:26:56.985Z,34.20
2019-04-16T10:29:26.154Z,34.20
2019-04-16T10:31:55.656Z,32.50
2019-04-16T10:34:24.230Z,28.40
2019-04-16T10:36:52.779Z,27.00
2019-04-16T10:39:31.810Z,25.70
2019-04-16T10:42:14.013Z,24.70
2019-04-16T10:44:56.102Z,25.50
2019-04-16T10:47:31.838Z,23.50
2019-04-16T10:50:13.765Z,23.60
2019-04-16T10:52:56.383Z,22.10
2019-04-16T10:55:27.028Z,21.80
2019-04-16T10:58:00.102Z,21.60
2019-04-16T11:00:33.259Z,20.70
2019-04-16T11:03:03.484Z,21.40
2019-04-16T11:05:39.509Z,20.70
2019-04-16T11:08:09.054Z,20.30
2019-04-16T11:10:37.617Z,19.60
2019-04-16T11:13:07.904Z,20.60
2019-04-16T11:15:37.097Z,20.80
2019-04-16T11:18:06.290Z,21.00
2019-04-16T11:20:34.860Z,20.50
2019-04-16T11:23:06.855Z,20.10
2019-04-16T11:25:33.716Z,19.90
2019-04-16T11:28:02.315Z,20.00
2019-04-16T11:30:32.657Z,20.30
2019-04-16T11:33:20.566Z,19.40
2019-04-16T11:35:52.733Z,19.90
2019-04-16T11:38:19.447Z,20.40
2019-04-16T11:40:48.090Z,19.40
2019-04-16T11:43:16.731Z,18.10
2019-04-16T11:46:05.034Z,19.00
2019-04-16T11:48:37.258Z,19.60
2019-04-16T11:51:03.866Z,20.80
2019-04-16T11:53:32.471Z,19.90
2019-04-16T11:56:01.015Z,20.10
2019-04-16T11:58:40.130Z,19.80
2019-04-16T12:01:26.275Z,19.50
2019-04-16T12:03:56.720Z,17.90
2019-04-16T12:06:28.662Z,19.50
2019-04-16T12:09:14.923Z,18.90
2019-04-16T12:12:01.639Z,18.40
2019-04-16T12:14:35.194Z,19.10
2019-04-16T12:17:20.280Z,18.50
2019-04-16T12:20:08.685Z,18.50
2019-04-16T12:22:47.870Z,17.90
2019-04-16T12:25:36.573Z,18.00
2019-04-16T12:28:19.206Z,18.50
2019-04-16T12:31:05.870Z,18.60
2019-04-16T12:33:38.757Z,17.50
2019-04-16T12:36:12.760Z,18.20
2019-04-16T12:38:40.857Z,18.10
2019-04-16T12:41:22.900Z,17.90
2019-04-16T12:43:53.053Z,18.00
2019-04-16T12:46:39.782Z,18.00
2019-04-16T12:49:12.750Z,17.70
2019-04-16T12:51:48.660Z,17.40
2019-04-16T12:54:37.748Z,17.60
2019-04-16T12:57:10.642Z,18.00
2019-04-16T12:59:44.377Z,17.80
2019-04-16T13:02:31.234Z,17.80
2019-04-16T13:05:04.171Z,18.50
2019-04-16T13:07:34.368Z,17.80
2019-04-16T13:10:04.757Z,18.70
2019-04-16T13:12:34.955Z,17.80
2019-04-16T13:15:11.948Z,18.40
2019-04-16T13:17:58.423Z,18.10
2019-04-16T13:20:47.038Z,17.90
2019-04-16T13:23:33.296Z,18.40
2019-04-16T13:26:06.333Z,19.20
2019-04-16T13:28:34.935Z,18.20
2019-04-16T13:31:03.494Z,18.10
2019-04-16T13:33:32.041Z,17.90
2019-04-16T13:36:00.545Z,18.20
2019-04-16T13:38:30.745Z,17.50
2019-04-16T13:41:01.809Z,17.80
2019-04-16T13:43:33.754Z,17.90
2019-04-16T13:46:01.477Z,18.60
2019-04-16T13:48:31.593Z,18.70
2019-04-16T13:51:01.744Z,18.80
2019-04-16T13:53:35.172Z,19.00
2019-04-16T13:56:21.349Z,19.40
2019-04-16T13:58:51.637Z,19.10
2019-04-16T14:01:24.928Z,20.20
2019-04-16T14:03:56.078Z,20.80
2019-04-16T14:06:23.682Z,20.70
2019-04-16T14:08:52.177Z,20.50
2019-04-16T14:11:20.764Z,21.00
2019-04-16T14:13:50.259Z,21.70
2019-04-16T14:16:18.935Z,22.10
2019-04-16T14:18:47.493Z,22.00
2019-04-16T14:21:16.009Z,22.60
2019-04-16T14:23:44.652Z,24.00
2019-04-16T14:26:13.274Z,23.20
2019-04-16T14:28:51.886Z,23.10
2019-04-16T14:31:16.435Z,24.10
2019-04-16T14:33:47.018Z,23.70
2019-04-16T14:36:15.845Z,24.40
2019-04-16T14:38:46.134Z,24.20
2019-04-16T14:41:15.820Z,24.80
2019-04-16T14:43:46.436Z,24.30
2019-04-16T14:46:15.011Z,25.00
2019-04-16T14:48:46.491Z,24.80
2019-04-16T14:51:13.813Z,24.80
2019-04-16T14:53:51.283Z,25.20
2019-04-16T14:56:24.127Z,25.40
2019-04-16T14:59:06.274Z,26.40
2019-04-16T15:01:42.431Z,25.70
2019-04-16T15:04:18.403Z,25.90
2019-04-16T15:06:49.105Z,26.20
2019-04-16T15:09:26.349Z,26.50
2019-04-16T15:12:08.734Z,26.60
2019-04-16T15:14:50.945Z,26.90
2019-04-16T15:17:37.077Z,26.70
2019-04-16T15:20:25.988Z,26.70
2019-04-16T15:23:14.568Z,27.10
2019-04-16T15:26:00.775Z,27.40
2019-04-16T15:28:30.947Z,27.60
2019-04-16T15:31:09.951Z,27.50
2019-04-16T15:33:43.143Z,27.40
2019-04-16T15:36:19.510Z,27.60
2019-04-16T15:38:50.699Z,27.80
2019-04-16T15:41:20.919Z,27.90
2019-04-16T15:44:06.332Z,28.30
2019-04-16T15:46:41.241Z,28.20
2019-04-16T15:49:29.460Z,28.20
2019-04-16T15:52:15.901Z,28.50
2019-04-16T15:55:02.290Z,28.40
2019-04-16T15:57:38.306Z,28.90
2019-04-16T16:00:21.489Z,29.20
2019-04-16T16:03:08.165Z,29.20
2019-04-16T16:05:41.193Z,29.10
2019-04-16T16:08:14.465Z,29.20
2019-04-16T16:10:53.572Z,29.30
2019-04-16T16:13:22.663Z,29.40
2019-04-16T16:15:52.309Z,30.30
2019-04-16T16:18:20.879Z,29.70
2019-04-16T16:20:49.369Z,30.00
2019-04-16T16:23:18.025Z,29.80
2019-04-16T16:25:46.589Z,29.80
2019-04-16T16:28:15.183Z,30.10
2019-04-16T16:30:43.747Z,30.20
2019-04-16T16:33:12.413Z,30.40
2019-04-16T16:35:56.407Z,30.20
2019-04-16T16:38:13.921Z,30.70
2019-04-16T16:40:41.529Z,30.10
2019-04-16T16:43:10.105Z,30.40
2019-04-16T16:45:40.374Z,30.50
2019-04-16T16:48:08.978Z,30.50
2019-04-16T16:50:37.577Z,30.90
2019-04-16T16:53:24.331Z,30.40
2019-04-16T16:55:53.950Z,30.70
2019-04-16T16:58:29.952Z,31.00
2019-04-16T17:01:16.417Z,31.30
2019-04-16T17:04:03.107Z,31.10
2019-04-16T17:06:31.666Z,31.00
2019-04-16T17:09:00.221Z,31.40
2019-04-16T17:11:29.019Z,31.50
2019-04-16T17:13:58.086Z,32.10
2019-04-16T17:16:27.881Z,31.80
2019-04-16T17:18:56.455Z,31.70
2019-04-16T17:21:25.044Z,31.70
2019-04-16T17:23:53.823Z,32.50
2019-04-16T17:26:22.557Z,32.30
2019-04-16T17:28:51.115Z,32.70
2019-04-16T17:31:19.807Z,32.60
2019-04-16T17:33:48.363Z,32.10
2019-04-16T17:36:16.949Z,32.40
2019-04-16T17:38:45.699Z,32.70
2019-04-16T17:41:27.799Z,33.00
2019-04-16T17:44:06.970Z,32.40
2019-04-16T17:46:45.898Z,33.20
2019-04-16T17:49:21.647Z,32.60
2019-04-16T17:52:09.710Z,32.80
2019-04-16T17:54:48.943Z,32.80
2019-04-16T17:57:37.407Z,32.90
2019-04-16T18:00:21.284Z,33.30
2019-04-16T18:03:04.693Z,33.10
2019-04-16T18:05:35.505Z,33.70
2019-04-16T18:08:05.843Z,33.40
2019-04-16T18:10:54.611Z,33.40
2019-04-16T18:13:24.861Z,34.20
2019-04-16T18:16:00.902Z,34.10
2019-04-16T18:18:31.244Z,34.70
2019-04-16T18:21:16.137Z,34.10
2019-04-16T18:23:49.331Z,34.60
2019-04-16T18:26:28.392Z,34.50
2019-04-16T18:29:01.004Z,34.60
2019-04-16T18:31:36.221Z,34.70
2019-04-16T18:34:09.242Z,34.70
2019-04-16T18:36:41.343Z,34.70
2019-04-16T18:39:28.761Z,35.10
2019-04-16T18:42:04.851Z,35.00
2019-04-16T18:44:37.535Z,34.90
2019-04-16T18:47:10.634Z,34.80
2019-04-16T18:49:38.635Z,35.20
2019-04-16T18:52:07.234Z,35.20
2019-04-16T18:54:35.844Z,35.30
2019-04-16T18:57:04.806Z,35.00
2019-04-16T18:59:33.417Z,35.50
2019-04-16T19:02:03.722Z,35.70
2019-04-16T19:04:32.328Z,35.80
2019-04-16T19:07:00.917Z,36.00
2019-04-16T19:09:29.482Z,36.60
2019-04-16T19:11:58.343Z,36.60
2019-04-16T19:14:26.859Z,37.00
2019-04-16T19:16:55.460Z,38.30
2019-04-16T19:19:24.043Z,38.80
2019-04-16T19:21:53.120Z,37.90
2019-04-16T19:24:21.813Z,37.90
2019-04-16T19:26:50.391Z,38.30
2019-04-16T19:29:18.961Z,38.30
2019-04-16T19:31:47.713Z,38.00
2019-04-16T19:34:16.276Z,38.20
2019-04-16T19:36:44.869Z,38.50
2019-04-16T19:39:15.093Z,38.80
2019-04-16T19:41:43.669Z,39.40
2019-04-16T19:44:12.213Z,39.50
2019-04-16T19:46:40.808Z,39.50
2019-04-16T19:49:09.375Z,39.90
2019-04-16T19:51:40.617Z,40.00
2019-04-16T19:54:08.163Z,39.80
2019-04-16T19:56:36.727Z,39.50
2019-04-16T19:59:05.906Z,39.80
2019-04-16T20:01:34.542Z,40.50
2019-04-16T20:04:09.733Z,40.20
2019-04-16T20:06:33.567Z,40.00
2019-04-16T20:09:02.107Z,40.30
2019-04-16T20:11:30.642Z,40.70
2019-04-16T20:14:02.711Z,41.50
2019-04-16T20:16:29.499Z,40.90
2019-04-16T20:18:58.329Z,41.30
2019-04-16T20:21:26.860Z,41.20
2019-04-16T20:23:55.453Z,41.30
2019-04-16T20:26:24.031Z,40.90
2019-04-16T20:28:52.551Z,40.70
2019-04-16T20:31:21.108Z,40.50
2019-04-16T20:33:49.638Z,40.70
2019-04-16T20:36:22.420Z,40.20
2019-04-16T20:38:48.429Z,40.30
2019-04-16T20:41:19.016Z,40.20
2019-04-16T20:43:47.242Z,39.70
2019-04-16T20:46:15.795Z,40.30
2019-04-16T20:48:45.046Z,40.60
2019-04-16T20:51:14.366Z,40.30
2019-04-16T20:53:42.951Z,40.60
2019-04-16T20:56:11.528Z,40.20
2019-04-16T20:58:40.159Z,40.60
2019-04-16T21:01:08.733Z,40.30
2019-04-16T21:03:37.314Z,41.00
2019-04-16T21:06:07.814Z,41.10
2019-04-16T21:08:36.116Z,41.30
2019-04-16T21:11:07.410Z,41.60
2019-04-16T21:13:34.987Z,41.70
2019-04-16T21:16:03.720Z,41.30
2019-04-16T21:18:32.321Z,41.50
2019-04-16T21:21:00.955Z,41.60
2019-04-16T21:23:31.844Z,41.80
2019-04-16T21:25:59.732Z,41.90
2019-04-16T21:28:32.440Z,42.10
2019-04-16T21:31:02.638Z,41.50
2019-04-16T21:33:32.802Z,42.10
2019-04-16T21:36:05.915Z,46.40
2019-04-16T21:38:42.212Z,46.20
2019-04-16T21:41:12.202Z,47.00
2019-04-16T21:43:40.866Z,46.80
2019-04-16T21:46:09.467Z,46.60
2019-04-16T21:48:38.027Z,46.10
2019-04-16T21:51:06.554Z,46.40
2019-04-16T21:53:35.114Z,46.00
2019-04-16T21:56:07.849Z,46.20
2019-04-16T21:58:33.986Z,46.00
2019-04-16T22:01:05.130Z,45.70
2019-04-16T22:03:35.619Z,45.70
2019-04-16T22:06:04.291Z,45.20
2019-04-16T22:08:32.931Z,45.10
2019-04-16T22:11:01.792Z,45.00
2019-04-16T22:13:30.390Z,44.80
2019-04-16T22:15:58.991Z,44.80
2019-04-16T22:18:27.535Z,44.80
2019-04-16T22:20:56.137Z,45.30
2019-04-16T22:23:24.699Z,45.30
2019-04-16T22:25:53.302Z,45.80
2019-04-16T22:28:21.927Z,45.90
2019-04-16T22:30:51.469Z,46.20
2019-04-16T22:33:20.881Z,47.40
2019-04-16T22:35:49.463Z,47.10
2019-04-16T22:38:18.023Z,47.20
2019-04-16T22:40:57.141Z,47.50
2019-04-16T22:43:27.266Z,47.00
2019-04-16T22:46:00.251Z,46.60
2019-04-16T22:48:28.785Z,46.30
2019-04-16T22:50:57.408Z,46.10
2019-04-16T22:53:25.917Z,46.90
2019-04-16T22:55:56.710Z,47.90
2019-04-16T22:58:25.888Z,47.60
2019-04-16T23:00:56.082Z,47.70
2019-04-16T23:03:24.663Z,48.30
2019-04-16T23:05:53.144Z,48.60
2019-04-16T23:08:21.728Z,48.40
2019-04-16T23:10:51.921Z,48.40
2019-04-16T23:13:20.639Z,48.20
2019-04-16T23:15:49.189Z,49.00
2019-04-16T23:18:18.330Z,48.90
2019-04-16T23:20:46.974Z,48.70
2019-04-16T23:23:18.196Z,48.20
2019-04-16T23:25:45.766Z,48.50
2019-04-16T23:28:14.348Z,48.40
2019-04-16T23:30:42.833Z,48.10
2019-04-16T23:33:11.495Z,48.30
2019-04-16T23:35:44.300Z,48.10
2019-04-16T23:38:10.285Z,48.40
2019-04-16T23:40:40.811Z,48.90
2019-04-16T23:43:22.099Z,48.60
2019-04-16T23:45:54.297Z,48.10
2019-04-16T23:48:40.531Z,48.30
2019-04-16T23:51:29.609Z,48.70
2019-04-16T23:54:02.945Z,49.60
2019-04-16T23:56:38.965Z,49.70
2019-04-16T23:59:09.205Z,49.80
